Terminal Aerodrome Forecast
Issued by NWS Austin/San Antonio, TX

Current Version | Previous Version | Text Only | Print | Product List | Glossary Off
Versions: 1 2 3 4 5 6 7 8 9 10 11 12 13 14 15 16 17 18 19 20 21 22 23 24 25 26 27

000
FTUS44 KEWX 231100
TAFSAT
TAF
KSAT 231127Z 2312/2418 18008KT P6SM BKN018
     FM231500 18012KT P6SM FEW040 FEW250
     FM232100 15014KT P6SM FEW080 FEW250
     FM240700 18006KT P6SM BKN015
     FM241500 18010KT P6SM FEW040=

USA.gov is the U.S. government's official web portal to all federal, state and local government web resources and services.